Terminal Aerodrome Forecast
Issued by NWS Charleston, WV

Current Version | Previous Version | Text Only | Print | Product List | Glossary Off
Versions: 1 2 3 4 5 6 7 8 9 10 11 12 13 14 15 16 17 18 19 20 21 22 23 24 25 26 27 28 29 30 31 32 33 34 35

000
FTUS41 KRLX 180900 AAA
TAFBKW
TAF AMD
KBKW 180911Z 1809/1906 30012G22KT P6SM BKN035
     FM181400 31010G22KT P6SM BKN025
     FM181800 30015G26KT P6SM BKN015
     FM182300 30017G29KT P6SM BKN010=

USA.gov is the U.S. government's official web portal to all federal, state and local government web resources and services.